Wing, North Dakota
Current Conditions -  °F | °C
As of 11:52 AM on Thursday 30 Oct 2014 (Local Time) from KBIS Reporting Station
Overcast Overcast  
Wind Chill: 28°   Ceiling: 1200
Heat Index: 35°   Visibility: 10mi
Dew Point: 31°   Wind: 9mph
Humidity: 85%   Direction: 350°N
Pressure: 30.38"   Gusts: NA
Location:  47.14°N, 100.28°W
Report Text: KBIS 301652Z 35008KT 10SM OVC012 02/M01 A3038 RMK AO2 SLP304 T00171006
Loading
Personal Weather Stations






























Interactive Weather Map
Tropical Storm Tracking
New forecast layout! Learn more

10-Day Weather Forecast

Advertisements
Track Severe Weather on mobile